Time;durP1;ratioP1;P1;durP2;ratioP2;P2;SDS_P1;SDS_P2;PMS_P1;PMS_P2;Temp;Humidity;BMP_temperature;BMP_pressure;BME280_temperature;BME280_humidity;BME280_pressure;Samples;Min_cycle;Max_cycle;Signal;HPM_P1;HPM_P2
2022/06/13 00:01:57;;;;;;;2.77;1.60;;;15.50;99.90;;;;;;5007749;28;20195;-75
2022/06/13 00:04:23;;;;;;;2.10;1.40;;;15.70;99.90;;;;;;4991816;28;20562;-76
2022/06/13 00:06:48;;;;;;;4.37;1.50;;;15.60;99.90;;;;;;4991776;28;20175;-75
2022/06/13 00:09:14;;;;;;;2.90;1.60;;;15.80;99.90;;;;;;4991680;28;20563;-75
2022/06/13 00:11:41;;;;;;;1.87;1.43;;;15.70;99.90;;;;;;4991540;28;20180;-75
2022/06/13 00:14:08;;;;;;;1.50;1.40;;;15.70;99.90;;;;;;4991523;28;20204;-75
2022/06/13 00:16:33;;;;;;;1.50;1.40;;;15.80;99.90;;;;;;5007790;28;20196;-75
2022/06/13 00:18:59;;;;;;;2.17;1.40;;;15.80;99.90;;;;;;4991547;28;20203;-75
2022/06/13 00:21:33;;;;;;;3.23;1.77;;;15.70;99.90;;;;;;4992769;28;20172;-75
2022/06/13 00:24:01;;;;;;;1.73;1.50;;;15.60;99.90;;;;;;4991502;28;20183;-75
2022/06/13 00:26:29;;;;;;;1.93;1.50;;;15.70;99.90;;;;;;4991478;28;20187;-75
2022/06/13 00:28:54;;;;;;;3.30;1.70;;;15.40;99.90;;;;;;4991596;28;20664;-75
2022/06/13 00:31:20;;;;;;;2.37;1.50;;;15.60;99.90;;;;;;4975276;28;20761;-75
2022/06/13 00:33:46;;;;;;;2.13;1.40;;;15.80;99.90;;;;;;4974893;28;20306;-76
2022/06/13 00:36:12;;;;;;;3.37;1.83;;;15.80;99.90;;;;;;4991699;28;20175;-75
2022/06/13 00:38:38;;;;;;;2.43;1.60;;;15.80;99.90;;;;;;4991506;28;20226;-75
2022/06/13 00:41:13;;;;;;;2.00;1.40;;;15.60;99.90;;;;;;4991354;28;20180;-75
2022/06/13 00:43:41;;;;;;;2.27;1.70;;;15.70;99.90;;;;;;4991107;28;20195;-75
2022/06/13 00:46:28;;;;;;;2.10;1.50;;;15.60;99.90;;;;;;4991073;28;20274;-75
2022/06/13 00:49:00;;;;;;;1.40;1.30;;;15.50;99.90;;;;;;4991329;28;20542;-75
2022/06/13 00:51:25;;;;;;;3.33;1.70;;;15.50;99.90;;;;;;5007303;28;20172;-76
2022/06/13 00:53:52;;;;;;;3.30;1.50;;;15.30;99.90;;;;;;5007370;28;20207;-75
2022/06/13 00:56:24;;;;;;;3.07;2.00;;;15.10;99.90;;;;;;4991134;28;20581;-75
2022/06/13 00:59:00;;;;;;;2.10;1.60;;;14.90;99.90;;;;;;4992568;28;20175;-75
2022/06/13 01:01:28;;;;;;;2.10;1.50;;;14.90;99.90;;;;;;4991248;28;20184;-75
2022/06/13 01:03:56;;;;;;;1.80;1.40;;;14.70;99.90;;;;;;4991080;28;20184;-75
2022/06/13 01:06:22;;;;;;;3.00;1.80;;;14.60;99.90;;;;;;4991213;28;20537;-75
2022/06/13 01:08:48;;;;;;;2.60;1.77;;;14.50;99.90;;;;;;4990948;28;20191;-75
2022/06/13 01:11:18;;;;;;;3.17;1.60;;;14.40;99.90;;;;;;4991471;28;20188;-75
2022/06/13 01:13:58;;;;;;;3.23;2.00;;;14.40;99.90;;;;;;4992833;28;20250;-75
2022/06/13 01:16:37;;;;;;;4.00;1.70;;;14.40;99.90;;;;;;4994806;28;20182;-75
2022/06/13 01:19:33;;;;;;;1.90;1.70;;;14.40;99.90;;;;;;4996125;28;20219;-75
2022/06/13 01:22:07;;;;;;;3.80;1.80;;;14.40;99.90;;;;;;5003711;23;20211;-75
2022/06/13 01:25:10;;;;;;;2.10;1.90;;;14.50;99.90;;;;;;4996026;28;20578;-75
2022/06/13 01:28:06;;;;;;;2.73;1.70;;;14.30;99.90;;;;;;4996175;28;20254;-76
2022/06/13 01:30:49;;;;;;;2.90;1.83;;;14.30;99.90;;;;;;5011363;28;20267;-75
2022/06/13 01:33:42;;;;;;;2.07;1.60;;;14.20;99.90;;;;;;5010965;28;20207;-75
2022/06/13 01:36:13;;;;;;;3.17;1.73;;;14.10;99.90;;;;;;4994835;28;20178;-75
2022/06/13 01:39:08;;;;;;;3.27;1.80;;;14.10;99.90;;;;;;4995814;28;20218;-75
2022/06/13 01:41:58;;;;;;;1.80;1.67;;;13.90;99.90;;;;;;4994568;28;20270;-75
2022/06/13 01:44:51;;;;;;;2.50;1.60;;;14.20;99.90;;;;;;4994525;28;20183;-75
2022/06/13 01:47:43;;;;;;;1.80;1.57;;;14.20;99.90;;;;;;4994545;28;20210;-75
2022/06/13 01:50:30;;;;;;;1.80;1.70;;;14.10;99.90;;;;;;4993521;28;20191;-75
2022/06/13 01:53:08;;;;;;;2.10;1.60;;;14.20;99.90;;;;;;4995349;28;20195;-75
2022/06/13 01:55:52;;;;;;;2.37;1.70;;;14.10;99.90;;;;;;4994487;28;20211;-75
2022/06/13 01:58:17;;;;;;;2.13;1.67;;;13.80;99.90;;;;;;4994368;28;20183;-75
2022/06/13 02:00:57;;;;;;;2.73;1.83;;;13.70;99.90;;;;;;4994218;28;20180;-75
2022/06/13 02:03:32;;;;;;;3.10;1.70;;;13.70;99.90;;;;;;4993879;28;20720;-75
2022/06/13 02:06:32;;;;;;;2.67;1.90;;;13.80;99.90;;;;;;4994099;28;20589;-75
2022/06/13 02:09:03;;;;;;;4.03;1.80;;;13.90;99.90;;;;;;4993950;28;20175;-75
2022/06/13 02:11:34;;;;;;;3.63;2.00;;;13.70;99.90;;;;;;4993676;28;20172;-75
2022/06/13 02:14:12;;;;;;;3.00;1.67;;;13.70;99.90;;;;;;4977750;28;20729;-75
2022/06/13 02:16:47;;;;;;;2.53;1.70;;;13.60;99.90;;;;;;4995102;28;20231;-75
2022/06/13 02:19:19;;;;;;;2.53;1.73;;;13.50;99.90;;;;;;4993850;28;20179;-76
2022/06/13 02:21:50;;;;;;;3.67;2.00;;;13.20;99.90;;;;;;4993786;28;20203;-74
2022/06/13 02:24:22;;;;;;;4.00;1.90;;;13.20;99.90;;;;;;4993531;28;20211;-75
2022/06/13 02:26:52;;;;;;;4.07;1.70;;;13.30;99.90;;;;;;4993796;28;20263;-75
2022/06/13 02:29:26;;;;;;;3.03;1.70;;;13.20;99.90;;;;;;4977530;28;20180;-75
2022/06/13 02:32:06;;;;;;;2.57;1.70;;;13.10;99.90;;;;;;4977964;28;20191;-75
2022/06/13 02:34:37;;;;;;;3.30;1.90;;;13.20;99.90;;;;;;4993451;28;20331;-75
2022/06/13 02:37:16;;;;;;;3.03;1.87;;;13.10;99.90;;;;;;4993750;28;20180;-75
2022/06/13 02:39:50;;;;;;;2.90;2.00;;;13.10;99.90;;;;;;4994699;28;20184;-75
2022/06/13 02:42:25;;;;;;;3.27;2.10;;;13.00;99.90;;;;;;4994551;28;20195;-75
2022/06/13 02:44:57;;;;;;;3.60;2.10;;;13.00;99.90;;;;;;4993171;28;20270;-75
2022/06/13 02:47:32;;;;;;;3.33;1.87;;;13.00;99.90;;;;;;4994462;28;20205;-75
2022/06/13 02:50:11;;;;;;;3.87;2.00;;;13.00;99.90;;;;;;4993292;28;20168;-75
2022/06/13 02:52:55;;;;;;;3.37;1.90;;;12.90;99.90;;;;;;4992857;28;20669;-76
2022/06/13 02:55:21;;;;;;;2.30;1.80;;;12.90;99.90;;;;;;4993112;28;20182;-75
2022/06/13 02:58:07;;;;;;;2.03;1.80;;;13.00;99.90;;;;;;4977294;28;20182;-75
2022/06/13 03:00:47;;;;;;;4.93;2.20;;;13.30;99.90;;;;;;4993067;28;20226;-75
2022/06/13 03:03:41;;;;;;;2.70;2.10;;;13.40;99.90;;;;;;4992562;28;20758;-75
2022/06/13 03:06:33;;;;;;;2.90;1.80;;;13.30;99.90;;;;;;4992844;28;20561;-75
2022/06/13 03:09:08;;;;;;;2.47;2.00;;;13.10;99.90;;;;;;4992829;28;20172;-75
2022/06/13 03:12:04;;;;;;;2.83;1.90;;;13.30;99.90;;;;;;4992987;28;20187;-75
2022/06/13 03:14:35;;;;;;;3.33;2.10;;;13.20;99.90;;;;;;4976815;28;20176;-75
2022/06/13 03:17:27;;;;;;;4.30;2.43;;;13.20;99.90;;;;;;4992780;28;20176;-75
2022/06/13 03:20:04;;;;;;;3.57;1.80;;;13.30;99.90;;;;;;4992636;28;20184;-75
2022/06/13 03:22:39;;;;;;;3.57;2.00;;;13.30;99.90;;;;;;4993581;28;20231;-75
2022/06/13 03:25:12;;;;;;;3.23;1.80;;;13.20;99.90;;;;;;4993745;28;20275;-75
2022/06/13 03:28:08;;;;;;;2.53;1.73;;;13.20;99.90;;;;;;4992703;28;20175;-75
2022/06/13 03:30:40;;;;;;;2.97;2.00;;;13.10;99.90;;;;;;4992426;28;20258;-75
2022/06/13 03:35:57;;;;;;;3.23;2.13;;;13.40;99.90;;;;;;4992548;28;20179;-75
2022/06/13 03:38:28;;;;;;;4.70;2.50;;;13.50;99.90;;;;;;4992299;28;20274;-75
2022/06/13 03:40:59;;;;;;;3.53;2.53;;;13.50;99.90;;;;;;4993470;28;20174;-75
2022/06/13 03:43:33;;;;;;;3.27;1.97;;;13.50;99.90;;;;;;4991929;28;20216;-75
2022/06/13 03:46:09;;;;;;;2.63;2.07;;;13.50;99.90;;;;;;4992499;28;20175;-75
2022/06/13 03:48:56;;;;;;;3.60;2.00;;;13.40;99.90;;;;;;4993490;28;20160;-75
2022/06/13 03:51:31;;;;;;;3.60;2.03;;;13.40;99.90;;;;;;4992088;28;20176;-75
2022/06/13 03:54:07;;;;;;;3.57;2.00;;;13.50;99.90;;;;;;4991912;28;20738;-75
2022/06/13 03:56:42;;;;;;;2.73;2.10;;;13.50;99.90;;;;;;5008393;28;20274;-75
2022/06/13 03:59:12;;;;;;;3.23;2.30;;;13.50;99.90;;;;;;4991991;28;20179;-75
2022/06/13 04:01:52;;;;;;;4.40;2.50;;;13.30;99.90;;;;;;4976183;28;20192;-75
2022/06/13 04:04:25;;;;;;;3.87;2.20;;;13.10;99.90;;;;;;4991759;28;20196;-75
2022/06/13 04:06:50;;;;;;;2.50;2.00;;;13.00;99.90;;;;;;4991929;28;20214;-75
2022/06/13 04:09:26;;;;;;;3.40;2.23;;;13.10;99.90;;;;;;4975517;28;20555;-75
2022/06/13 04:12:31;;;;;;;2.70;2.03;;;13.10;99.90;;;;;;4991796;28;20190;-75
2022/06/13 04:15:29;;;;;;;2.97;2.20;;;13.00;99.90;;;;;;4991938;28;20195;-75
2022/06/13 04:18:12;;;;;;;3.20;2.30;;;13.20;99.90;;;;;;5008272;28;20191;-75
2022/06/13 04:21:20;;;;;;;3.27;2.20;;;13.20;99.90;;;;;;4991671;28;20195;-75
2022/06/13 04:23:51;;;;;;;2.87;2.07;;;13.30;99.90;;;;;;4991216;28;20218;-75
2022/06/13 04:26:37;;;;;;;3.50;2.30;;;13.50;99.90;;;;;;4993085;28;20172;-75
2022/06/13 04:29:12;;;;;;;2.33;2.10;;;13.60;99.90;;;;;;4991810;28;20180;-75
2022/06/13 04:31:40;;;;;;;2.63;2.00;;;13.60;99.90;;;;;;4991830;28;20548;-75
2022/06/13 04:34:19;;;;;;;2.97;2.30;;;13.50;99.90;;;;;;4991436;28;20673;-75
2022/06/13 04:36:47;;;;;;;3.63;2.30;;;13.50;99.90;;;;;;4975746;28;20235;-75
2022/06/13 04:39:15;;;;;;;4.43;2.50;;;13.50;99.90;;;;;;4991623;28;20237;-75
2022/06/13 04:41:44;;;;;;;3.83;2.27;;;13.50;99.90;;;;;;4975501;28;20187;-75
2022/06/13 04:44:22;;;;;;;3.10;2.30;;;13.50;99.90;;;;;;4975577;28;20222;-75
2022/06/13 04:46:49;;;;;;;4.43;2.20;;;13.50;99.90;;;;;;4991461;28;20189;-75
2022/06/13 04:49:30;;;;;;;2.93;2.30;;;13.60;99.90;;;;;;4994497;28;20329;-75
2022/06/13 04:51:59;;;;;;;2.27;2.03;;;13.50;99.90;;;;;;4995058;28;20175;-75
2022/06/13 04:55:12;;;;;;;3.20;2.20;;;13.60;99.90;;;;;;4995519;28;20172;-75
2022/06/13 04:57:38;;;;;;;3.43;2.30;;;13.70;99.90;;;;;;4979908;28;20195;-75
2022/06/13 05:00:09;;;;;;;2.67;2.03;;;13.80;99.90;;;;;;4979210;28;20192;-75
2022/06/13 05:02:47;;;;;;;3.63;2.30;;;13.80;99.90;;;;;;4994982;28;20227;-75
2022/06/13 05:05:27;;;;;;;3.23;2.40;;;13.90;99.90;;;;;;4995275;28;20207;-74
2022/06/13 05:07:53;;;;;;;2.90;2.57;;;14.10;99.90;;;;;;4995027;28;20207;-76
2022/06/13 05:10:22;;;;;;;3.20;2.30;;;14.20;99.90;;;;;;4994963;28;20226;-76
2022/06/13 05:12:48;;;;;;;3.60;2.40;;;14.00;99.90;;;;;;4994784;28;20191;-76
2022/06/13 05:15:22;;;;;;;4.53;2.53;;;14.00;99.90;;;;;;4996335;28;20215;-75
2022/06/13 05:17:58;;;;;;;4.10;2.20;;;14.00;99.90;;;;;;4979395;28;20226;-75
2022/06/13 05:20:54;;;;;;;2.80;2.43;;;14.10;99.90;;;;;;4994700;28;20184;-76
2022/06/13 05:23:47;;;;;;;2.60;2.40;;;14.20;99.90;;;;;;5010806;28;20752;-76
2022/06/13 05:26:12;;;;;;;4.23;2.70;;;14.40;99.90;;;;;;4994741;28;20176;-76
2022/06/13 05:28:38;;;;;;;4.20;2.50;;;14.50;99.90;;;;;;4978498;28;20562;-76
2022/06/13 05:31:18;;;;;;;5.93;3.23;;;14.50;99.90;;;;;;4978406;28;20184;-76
2022/06/13 05:33:44;;;;;;;5.33;2.93;;;14.60;99.90;;;;;;4994329;28;20207;-76
2022/06/13 05:36:15;;;;;;;5.87;3.00;;;14.70;99.90;;;;;;4978221;28;20191;-76
2022/06/13 05:38:46;;;;;;;4.90;3.20;;;14.70;99.90;;;;;;4994439;28;20183;-75
2022/06/13 05:41:11;;;;;;;7.93;3.30;;;14.70;99.90;;;;;;4994909;28;20182;-76
2022/06/13 05:43:37;;;;;;;5.30;3.20;;;14.80;99.90;;;;;;4977800;28;20215;-76
2022/06/13 05:46:05;;;;;;;5.20;3.30;;;14.80;99.90;;;;;;4994046;28;20203;-76
2022/06/13 05:48:31;;;;;;;6.17;3.57;;;14.90;99.90;;;;;;4994351;28;20180;-75
2022/06/13 05:50:56;;;;;;;4.03;3.30;;;14.90;99.90;;;;;;4978177;28;20275;-75
2022/06/13 05:53:24;;;;;;;5.10;2.83;;;15.00;99.90;;;;;;4977596;28;20349;-75
2022/06/13 05:55:54;;;;;;;6.00;3.33;;;15.00;99.90;;;;;;4995267;28;20179;-76
2022/06/13 05:58:21;;;;;;;6.63;3.10;;;15.10;99.90;;;;;;4995201;28;20172;-76
2022/06/13 06:00:49;;;;;;;4.10;2.63;;;15.10;99.90;;;;;;4994091;28;20661;-75
2022/06/13 06:03:16;;;;;;;4.03;2.87;;;15.20;99.90;;;;;;5010254;28;20222;-76
2022/06/13 06:05:42;;;;;;;4.33;2.90;;;15.30;99.90;;;;;;4978029;28;20180;-75
2022/06/13 06:08:20;;;;;;;3.00;2.67;;;15.40;99.90;;;;;;4993903;28;20182;-75
2022/06/13 06:10:48;;;;;;;5.90;2.40;;;15.40;99.90;;;;;;4977596;28;20638;-75
2022/06/13 06:13:15;;;;;;;4.13;2.17;;;15.50;99.90;;;;;;4993633;28;20203;-75
2022/06/13 06:15:42;;;;;;;3.17;2.10;;;15.60;99.90;;;;;;4993788;28;20176;-76
2022/06/13 06:18:09;;;;;;;3.57;2.30;;;15.70;99.90;;;;;;4994959;28;20223;-75
2022/06/13 06:20:36;;;;;;;4.87;2.23;;;15.80;99.90;;;;;;4993744;28;20183;-75
2022/06/13 06:23:02;;;;;;;3.53;2.20;;;15.80;99.90;;;;;;4993378;28;20207;-75
2022/06/13 06:25:29;;;;;;;4.10;2.50;;;15.90;99.90;;;;;;4977425;28;20191;-76
2022/06/13 06:27:54;;;;;;;4.07;2.70;;;16.00;99.90;;;;;;4993524;28;20189;-75
2022/06/13 06:30:20;;;;;;;4.23;2.20;;;16.00;99.90;;;;;;4977200;28;20183;-75
2022/06/13 06:32:46;;;;;;;3.53;2.10;;;16.10;99.90;;;;;;4976907;28;20211;-76
2022/06/13 06:35:13;;;;;;;4.67;2.30;;;16.10;99.90;;;;;;4977402;28;20270;-75
2022/06/13 06:37:40;;;;;;;5.30;2.77;;;15.90;99.90;;;;;;4993370;28;20279;-76
2022/06/13 06:40:07;;;;;;;3.17;2.20;;;15.90;99.90;;;;;;4993409;28;20179;-75
2022/06/13 06:42:33;;;;;;;5.43;2.50;;;16.00;99.90;;;;;;4992933;28;20196;-75
2022/06/13 06:44:59;;;;;;;5.27;2.60;;;16.10;99.90;;;;;;4993390;28;20207;-76
2022/06/13 06:47:25;;;;;;;5.33;2.33;;;16.20;99.90;;;;;;4976968;28;20186;-77
2022/06/13 06:49:50;;;;;;;4.20;2.50;;;16.30;99.90;;;;;;5009323;28;20202;-76
2022/06/13 06:52:16;;;;;;;4.20;2.40;;;16.40;99.90;;;;;;4976731;28;20274;-76
2022/06/13 07:00:10;;;;;;;4.43;2.37;;;16.70;99.90;;;;;;4999745;28;20198;-76
2022/06/13 07:02:35;;;;;;;5.33;2.60;;;16.80;99.90;;;;;;5012653;28;20210;-77
2022/06/13 07:05:06;;;;;;;5.07;2.50;;;16.90;99.90;;;;;;4980243;28;20203;-76
2022/06/13 07:07:31;;;;;;;4.80;2.40;;;17.00;99.90;;;;;;5012933;28;20580;-75
2022/06/13 07:09:57;;;;;;;5.17;2.60;;;16.90;99.90;;;;;;4978025;28;20188;-76
2022/06/13 07:12:23;;;;;;;6.27;2.33;;;17.00;99.90;;;;;;4976966;28;20192;-76
2022/06/13 07:14:48;;;;;;;3.97;2.10;;;17.00;99.90;;;;;;4993454;28;20238;-76
2022/06/13 07:17:15;;;;;;;5.10;2.20;;;17.20;99.90;;;;;;4993070;28;20195;-76
2022/06/13 07:19:44;;;;;;;5.27;2.60;;;17.40;99.90;;;;;;5009437;28;20180;-75
2022/06/13 07:22:13;;;;;;;4.57;2.13;;;17.60;99.90;;;;;;5011544;28;20187;-76
2022/06/13 07:24:39;;;;;;;3.53;2.30;;;17.80;99.90;;;;;;4993164;28;20203;-77
2022/06/13 07:27:04;;;;;;;5.10;2.50;;;18.00;99.90;;;;;;4976504;28;20175;-77
2022/06/13 07:29:30;;;;;;;4.33;2.20;;;18.20;99.90;;;;;;4976080;28;20275;-77
2022/06/13 07:32:17;;;;;;;6.73;2.43;;;18.40;99.90;;;;;;4992680;28;20270;-77
2022/06/13 07:34:45;;;;;;;4.43;2.20;;;18.50;99.90;;;;;;4992562;28;20179;-77
2022/06/13 07:38:16;;;;;;;4.43;2.30;;;18.60;99.90;;;;;;4992593;28;20180;-77
2022/06/13 07:40:00;;;;;;;3.60;2.40;;;18.70;99.90;;;;;;4979190;28;20214;-77
2022/06/13 07:42:26;;;;;;;3.33;2.20;;;18.80;99.90;;;;;;4976026;28;20203;-77
2022/06/13 07:44:51;;;;;;;6.27;2.00;;;18.90;99.90;;;;;;4992317;28;20253;-77
2022/06/13 07:50:40;;;;;;;5.30;2.03;;;19.10;99.90;;;;;;4993564;28;20206;-77
2022/06/13 07:53:06;;;;;;;6.40;2.10;;;19.00;99.90;;;;;;4992026;28;20202;-77
2022/06/13 07:55:32;;;;;;;4.03;1.90;;;18.90;99.90;;;;;;4992047;28;20259;-77
2022/06/13 07:57:58;;;;;;;3.27;1.90;;;18.80;99.90;;;;;;4992045;28;20296;-77
2022/06/13 08:00:29;;;;;;;5.00;2.03;;;18.70;99.90;;;;;;4976099;28;20639;-76
2022/06/13 08:02:55;;;;;;;4.10;1.90;;;18.70;99.90;;;;;;4976412;28;20286;-77
2022/06/13 08:05:21;;;;;;;4.40;2.53;;;18.80;99.90;;;;;;4975736;28;20295;-77
2022/06/13 08:07:46;;;;;;;6.13;1.90;;;19.00;99.90;;;;;;4959586;28;20721;-77
2022/06/13 08:10:12;;;;;;;4.70;1.90;;;19.30;99.90;;;;;;4959886;28;20314;-77
2022/06/13 08:12:41;;;;;;;3.33;1.80;;;19.20;99.90;;;;;;4975418;28;20200;-77
2022/06/13 08:15:07;;;;;;;4.13;1.70;;;19.20;99.90;;;;;;4991833;28;20184;-77
2022/06/13 08:17:57;;;;;;;7.20;2.20;;;19.30;99.90;;;;;;4975697;28;20179;-77
2022/06/13 08:20:23;;;;;;;6.00;2.40;;;19.30;99.90;;;;;;4975940;28;20179;-77
2022/06/13 08:22:49;;;;;;;5.67;2.37;;;19.40;99.90;;;;;;4975442;28;20215;-77
2022/06/13 08:25:22;;;;;;;4.33;2.10;;;19.50;99.90;;;;;;4993211;28;20199;-77
2022/06/13 08:27:48;;;;;;;4.33;1.80;;;19.50;99.90;;;;;;4992061;28;20612;-77
2022/06/13 08:30:14;;;;;;;4.40;1.90;;;19.50;99.90;;;;;;4959872;28;20188;-77
2022/06/13 08:32:40;;;;;;;5.33;1.97;;;19.70;99.90;;;;;;4991724;28;20231;-77
2022/06/13 08:35:06;;;;;;;3.67;1.70;;;19.90;99.90;;;;;;4975884;28;20184;-77
2022/06/13 08:37:32;;;;;;;5.43;2.17;;;20.10;99.90;;;;;;4975913;28;20180;-77
2022/06/13 08:39:58;;;;;;;3.27;1.70;;;20.00;99.90;;;;;;4959601;28;20206;-77
2022/06/13 08:42:40;;;;;;;2.60;1.70;;;20.20;99.90;;;;;;4991912;28;20200;-78
2022/06/13 08:45:27;;;;;;;4.37;1.70;;;20.50;99.90;;;;;;4992060;28;20233;-77
2022/06/13 08:48:15;;;;;;;4.40;1.90;;;20.50;99.90;;;;;;4991934;28;20163;-77
2022/06/13 08:50:57;;;;;;;4.70;1.60;;;20.50;99.90;;;;;;4992132;28;20721;-77
2022/06/13 08:53:37;;;;;;;2.40;1.40;;;20.30;99.00;;;;;;4992861;28;20202;-77
2022/06/13 08:56:08;;;;;;;3.47;1.70;;;20.10;99.00;;;;;;4992102;28;20172;-77
2022/06/13 08:58:37;;;;;;;4.03;1.90;;;19.90;99.40;;;;;;4992111;28;20267;-77
2022/06/13 09:01:32;;;;;;;5.93;1.87;;;19.60;99.90;;;;;;4991712;28;20168;-77
2022/06/13 09:04:13;;;;;;;2.63;1.53;;;19.50;99.90;;;;;;4991473;28;20697;-77
2022/06/13 09:06:52;;;;;;;4.73;1.90;;;19.50;99.90;;;;;;4991654;28;20634;-77
2022/06/13 09:09:27;;;;;;;4.50;2.20;;;19.40;99.90;;;;;;4991983;28;20203;-77
2022/06/13 09:12:15;;;;;;;3.40;1.63;;;19.30;99.90;;;;;;4975435;28;20171;-77
2022/06/13 09:15:01;;;;;;;3.17;2.10;;;19.20;99.90;;;;;;4976580;28;20175;-77
2022/06/13 09:17:52;;;;;;;3.80;1.80;;;19.20;99.90;;;;;;4976702;28;20183;-77
2022/06/13 09:20:25;;;;;;;4.00;1.70;;;19.10;99.90;;;;;;4991661;28;20172;-77
2022/06/13 09:22:54;;;;;;;3.17;1.73;;;19.00;99.90;;;;;;4991507;28;20641;-77
2022/06/13 09:25:23;;;;;;;4.00;1.77;;;19.00;99.90;;;;;;4991692;28;20199;-77
2022/06/13 09:27:57;;;;;;;3.17;1.70;;;19.10;99.90;;;;;;4991823;28;20168;-77
2022/06/13 09:30:27;;;;;;;4.43;1.97;;;19.30;99.90;;;;;;4992688;28;20167;-77
2022/06/13 09:32:56;;;;;;;5.10;1.80;;;19.80;99.90;;;;;;4991469;28;20295;-77
2022/06/13 09:35:32;;;;;;;4.37;1.83;;;20.30;99.90;;;;;;4978407;28;20192;-77
2022/06/13 09:38:08;;;;;;;4.80;1.90;;;20.60;99.90;;;;;;4994880;28;20229;-77
2022/06/13 09:40:54;;;;;;;3.10;1.57;;;20.80;99.70;;;;;;4994858;28;20180;-77
2022/06/13 09:43:23;;;;;;;3.60;1.70;;;20.80;98.10;;;;;;4994801;28;20203;-77
2022/06/13 09:45:55;;;;;;;4.13;2.13;;;20.40;99.10;;;;;;4995029;28;20187;-77
2022/06/13 09:48:45;;;;;;;2.90;1.50;;;20.00;99.80;;;;;;4995997;28;20168;-77
2022/06/13 09:51:22;;;;;;;3.87;1.70;;;19.60;98.40;;;;;;4994986;28;20172;-77
2022/06/13 09:53:53;;;;;;;4.20;1.70;;;19.50;99.90;;;;;;4994803;28;20199;-77
2022/06/13 09:56:36;;;;;;;4.10;2.00;;;19.60;99.90;;;;;;4994549;28;20179;-77
2022/06/13 09:59:32;;;;;;;4.03;1.90;;;19.60;99.90;;;;;;4994849;28;20172;-77
2022/06/13 10:02:52;;;;;;;3.83;2.03;;;19.70;99.90;;;;;;4994526;28;20172;-77
2022/06/13 10:05:40;;;;;;;6.30;2.50;;;20.40;99.90;;;;;;4957612;28;20204;-77
2022/06/13 10:08:12;;;;;;;3.95;2.00;;;20.60;99.90;;;;;;4942245;28;20288;-77
2022/06/13 10:10:54;;;;;;;2.45;1.90;;;21.00;99.90;;;;;;4997125;28;20317;-77
2022/06/13 10:13:49;;;;;;;4.15;1.90;;;21.20;99.90;;;;;;4994367;28;20238;-77
2022/06/13 10:20:03;;;;;;;3.97;2.03;;;21.60;99.90;;;;;;4995452;28;20155;-77
2022/06/13 10:22:37;;;;;;;5.00;1.80;;;21.70;99.90;;;;;;4996706;28;20238;-77
2022/06/13 10:25:12;;;;;;;2.95;1.80;;;21.50;99.90;;;;;;4995142;28;20223;-77
2022/06/13 10:27:44;;;;;;;3.20;1.80;;;21.50;99.90;;;;;;4994262;28;20171;-77
2022/06/13 10:30:45;;;;;;;4.22;2.00;;;21.60;99.50;;;;;;4995288;28;20219;-77
2022/06/13 10:33:28;;;;;;;3.03;1.88;;;21.40;99.80;;;;;;5009911;28;20195;-77
2022/06/13 10:36:18;;;;;;;5.20;1.90;;;21.30;99.80;;;;;;4995082;28;20168;-78
2022/06/13 10:39:01;;;;;;;3.40;1.90;;;21.20;99.90;;;;;;4993851;28;20213;-77
2022/06/13 10:41:29;;;;;;;3.53;1.90;;;21.30;99.90;;;;;;5010301;28;20251;-79
2022/06/13 10:43:57;;;;;;;2.83;1.98;;;21.10;99.90;;;;;;5009716;28;20302;-78
2022/06/13 10:46:23;;;;;;;3.45;1.92;;;20.80;99.90;;;;;;5009596;28;20180;-77
2022/06/13 10:49:13;;;;;;;4.20;1.80;;;20.60;99.90;;;;;;4993843;28;20171;-77
2022/06/13 10:51:40;;;;;;;4.65;2.03;;;20.90;99.90;;;;;;5009813;28;20570;-77
2022/06/13 10:54:12;;;;;;;2.38;1.52;;;21.20;98.90;;;;;;4993319;28;20195;-77
2022/06/13 10:56:54;;;;;;;3.53;2.03;;;21.30;99.10;;;;;;4993736;28;20176;-78
2022/06/13 10:59:32;;;;;;;6.15;2.35;;;21.70;99.10;;;;;;4979532;28;20222;-78
2022/06/13 11:02:23;;;;;;;3.53;1.83;;;21.20;98.80;;;;;;4994243;28;20178;-78
2022/06/13 11:05:06;;;;;;;4.38;2.00;;;20.70;99.90;;;;;;4993399;28;20225;-75
2022/06/13 11:07:35;;;;;;;2.95;1.90;;;20.50;99.90;;;;;;4994502;28;20238;-76
2022/06/13 11:10:01;;;;;;;4.27;2.27;;;20.00;99.90;;;;;;4994386;28;20622;-76
2022/06/13 11:12:38;;;;;;;3.97;1.70;;;19.10;99.90;;;;;;5009168;28;20246;-75
2022/06/13 11:23:51;;;;;;;2.83;1.70;;;17.60;99.90;;;;;;4993900;28;20576;-76
2022/06/13 11:29:03;;;;;;;2.53;1.57;;;17.90;99.90;;;;;;4993517;28;20734;-77
2022/06/13 11:31:29;;;;;;;2.40;1.63;;;17.90;99.90;;;;;;4993001;28;20180;-77
2022/06/13 11:33:56;;;;;;;1.90;1.63;;;17.90;99.90;;;;;;5008832;28;20626;-77
2022/06/13 11:36:28;;;;;;;2.60;1.60;;;17.90;99.90;;;;;;4993923;28;20168;-77
2022/06/13 11:38:56;;;;;;;3.03;1.60;;;17.80;99.90;;;;;;4977001;28;20646;-77
2022/06/13 11:41:35;;;;;;;2.40;1.73;;;17.90;99.90;;;;;;4992544;28;20180;-77
2022/06/13 11:44:03;;;;;;;2.30;1.60;;;17.60;99.90;;;;;;4992729;28;20207;-77
2022/06/13 11:46:30;;;;;;;3.43;1.70;;;17.60;99.90;;;;;;4992792;28;20596;-77
2022/06/13 11:49:01;;;;;;;2.77;1.80;;;17.60;99.90;;;;;;4993722;28;20514;-77
2022/06/13 11:51:39;;;;;;;2.33;1.70;;;17.60;99.90;;;;;;5008598;28;20171;-77
2022/06/13 11:54:05;;;;;;;2.33;1.60;;;17.70;99.90;;;;;;4992412;28;20763;-77
2022/06/13 11:56:33;;;;;;;2.63;1.70;;;17.70;99.90;;;;;;4992255;28;20311;-77
2022/06/13 11:59:03;;;;;;;3.57;1.60;;;17.90;99.90;;;;;;4992687;28;20188;-77
2022/06/13 12:01:37;;;;;;;2.70;1.90;;;18.00;99.90;;;;;;4992808;28;20167;-77
2022/06/13 12:04:11;;;;;;;3.60;1.87;;;18.20;99.90;;;;;;5008445;28;20694;-77
2022/06/13 12:06:46;;;;;;;2.10;1.60;;;18.40;99.90;;;;;;4993343;28;20168;-77
2022/06/13 12:09:29;;;;;;;2.00;1.63;;;18.50;99.90;;;;;;5008868;28;20195;-77
2022/06/13 12:12:00;;;;;;;1.90;1.60;;;18.60;99.90;;;;;;5008297;28;20622;-77
2022/06/13 12:14:31;;;;;;;2.77;1.77;;;18.80;99.90;;;;;;5008850;28;20255;-77
2022/06/13 12:17:40;;;;;;;2.00;1.80;;;18.80;99.90;;;;;;4992272;28;20171;-77
2022/06/13 12:20:11;;;;;;;3.63;1.90;;;18.90;99.90;;;;;;4992167;28;20218;-77
2022/06/13 12:23:03;;;;;;;3.40;2.03;;;18.60;99.90;;;;;;5006760;28;20682;-77
2022/06/13 12:25:41;;;;;;;5.67;2.20;;;18.80;99.90;;;;;;4972925;28;20294;-77
2022/06/13 12:28:11;;;;;;;2.30;2.07;;;19.10;99.90;;;;;;4957931;28;20165;-77
2022/06/13 12:30:50;;;;;;;4.07;2.43;;;19.70;99.90;;;;;;4972911;28;20179;-77
2022/06/13 12:33:38;;;;;;;4.15;2.72;;;20.10;99.90;;;;;;4972358;28;20204;-77
2022/06/13 12:36:25;;;;;;;2.97;2.33;;;20.20;99.90;;;;;;4972867;28;20171;-77
2022/06/13 12:38:57;;;;;;;3.73;2.47;;;20.20;99.90;;;;;;4972754;28;20172;-77
2022/06/13 12:41:28;;;;;;;3.70;2.33;;;20.40;99.90;;;;;;4972837;28;20172;-77
2022/06/13 12:44:22;;;;;;;3.45;2.30;;;20.50;99.90;;;;;;4956396;28;20208;-77
2022/06/13 12:46:50;;;;;;;3.77;2.40;;;20.20;99.90;;;;;;4973959;28;20152;-77
2022/06/13 12:49:33;;;;;;;4.30;2.67;;;20.00;99.90;;;;;;4972398;28;20681;-77
2022/06/13 12:52:12;;;;;;;4.23;2.50;;;20.20;99.90;;;;;;4972188;28;20183;-77
2022/06/13 12:55:03;;;;;;;6.70;2.67;;;20.40;99.90;;;;;;4972636;28;20179;-77
2022/06/13 12:57:47;;;;;;;3.92;2.60;;;20.80;99.90;;;;;;4972609;28;20219;-77
2022/06/13 13:00:24;;;;;;;4.50;2.75;;;20.90;99.90;;;;;;4973609;28;20159;-77
2022/06/13 13:03:22;;;;;;;3.83;2.65;;;21.00;99.90;;;;;;4972030;28;20196;-77
2022/06/13 13:06:22;;;;;;;3.65;2.50;;;20.50;99.90;;;;;;4945100;28;20280;-77
2022/06/13 13:09:09;;;;;;;2.97;2.43;;;20.30;99.90;;;;;;4972689;28;20279;-77
2022/06/13 13:11:49;;;;;;;4.88;2.60;;;20.60;99.90;;;;;;4976270;28;20184;-77
2022/06/13 13:14:48;;;;;;;3.95;2.58;;;20.70;99.90;;;;;;4977133;28;20184;-77
2022/06/13 13:17:35;;;;;;;4.13;2.50;;;20.40;99.90;;;;;;4975981;28;20172;-77
2022/06/13 13:20:22;;;;;;;4.70;2.70;;;20.30;99.90;;;;;;4976050;28;20524;-77
2022/06/13 13:23:04;;;;;;;4.63;2.77;;;20.40;99.90;;;;;;5018365;23;20204;-77
2022/06/13 13:25:38;;;;;;;4.35;2.83;;;20.70;99.90;;;;;;5015381;28;20300;-77
2022/06/13 13:28:14;;;;;;;4.25;2.92;;;21.00;98.70;;;;;;5016402;28;20160;-76
2022/06/13 13:30:50;;;;;;;3.67;2.90;;;21.30;95.40;;;;;;5031323;28;20250;-76
2022/06/13 13:33:40;;;;;;;3.00;2.70;;;21.30;94.50;;;;;;5025980;28;20195;-76
2022/06/13 13:36:22;;;;;;;3.28;2.67;;;21.30;93.60;;;;;;4995413;28;20171;-76
2022/06/13 13:38:56;;;;;;;5.43;3.25;;;21.30;94.20;;;;;;5011300;28;20175;-76
2022/06/13 13:41:45;;;;;;;5.13;2.90;;;21.40;93.00;;;;;;5011315;28;20250;-76
2022/06/13 13:44:32;;;;;;;5.18;3.13;;;21.60;93.70;;;;;;4995108;28;20276;-76
2022/06/13 13:47:21;;;;;;;4.28;3.13;;;21.70;92.20;;;;;;4994822;28;20244;-76
2022/06/13 13:50:24;;;;;;;5.13;3.45;;;21.80;92.60;;;;;;4991848;28;20274;-77
2022/06/13 13:52:56;;;;;;;5.85;3.03;;;22.00;92.80;;;;;;5011125;28;20164;-76
2022/06/13 13:55:48;;;;;;;6.32;3.20;;;22.30;90.70;;;;;;5011279;28;20258;-76
2022/06/13 13:58:20;;;;;;;5.40;3.10;;;22.40;90.90;;;;;;4995758;28;20202;-76